createdAt,value
2023-04-16T00:00:48.642Z,33.50
2023-04-16T00:01:48.683Z,33.40
2023-04-16T00:02:48.471Z,33.70
2023-04-16T00:03:48.797Z,33.80
2023-04-16T00:04:48.682Z,33.70
2023-04-16T00:05:48.579Z,33.50
2023-04-16T00:06:48.600Z,32.90
2023-04-16T00:07:48.497Z,32.70
2023-04-16T00:08:48.476Z,33.80
2023-04-16T00:09:48.505Z,32.20
2023-04-16T00:10:48.424Z,33.20
2023-04-16T00:11:48.481Z,33.20
2023-04-16T00:12:48.392Z,33.50
2023-04-16T00:13:48.455Z,32.90
2023-04-16T00:14:48.440Z,33.20
2023-04-16T00:15:48.455Z,33.20
2023-04-16T00:16:48.513Z,34.10
2023-04-16T00:17:48.445Z,33.30
2023-04-16T00:18:48.413Z,35.00
2023-04-16T00:19:48.412Z,33.80
2023-04-16T00:20:48.244Z,32.30
2023-04-16T00:21:48.386Z,32.20
2023-04-16T00:22:48.355Z,32.90
2023-04-16T00:23:48.350Z,33.60
2023-04-16T00:24:48.408Z,34.00
2023-04-16T00:25:48.325Z,33.20
2023-04-16T00:26:48.314Z,34.20
2023-04-16T00:27:48.250Z,33.50
2023-04-16T00:28:48.283Z,33.00
2023-04-16T00:29:48.354Z,33.20
2023-04-16T00:30:48.355Z,33.30
2023-04-16T00:31:48.227Z,33.20
2023-04-16T00:32:48.275Z,32.90
2023-04-16T00:33:48.248Z,32.50
2023-04-16T00:34:48.240Z,32.90
2023-04-16T00:35:48.319Z,32.60
2023-04-16T00:36:48.212Z,32.90
2023-04-16T00:37:48.112Z,33.70
2023-04-16T00:38:48.074Z,33.70
2023-04-16T00:39:48.168Z,32.90
2023-04-16T00:40:48.114Z,32.40
2023-04-16T00:41:48.112Z,32.80
2023-04-16T00:42:48.142Z,32.40
2023-04-16T00:43:48.211Z,32.80
2023-04-16T00:44:48.115Z,33.00
2023-04-16T00:45:48.122Z,33.20
2023-04-16T00:46:48.118Z,32.90
2023-04-16T00:47:48.196Z,32.20
2023-04-16T00:48:48.043Z,32.90
2023-04-16T00:49:48.114Z,32.40
2023-04-16T00:50:48.024Z,31.90
2023-04-16T00:51:48.014Z,33.10
2023-04-16T00:52:47.925Z,32.80
2023-04-16T00:53:48.101Z,33.70
2023-04-16T00:54:48.033Z,33.00
2023-04-16T00:55:48.046Z,32.40
2023-04-16T00:56:48.061Z,32.60
2023-04-16T00:57:48.003Z,32.50
2023-04-16T00:58:48.008Z,32.20
2023-04-16T00:59:48.027Z,32.80
2023-04-16T01:00:48.039Z,32.70
2023-04-16T01:01:47.998Z,33.50
2023-04-16T01:02:48.119Z,32.10
2023-04-16T01:03:47.985Z,32.00
2023-04-16T01:04:47.913Z,33.30
2023-04-16T01:05:47.933Z,31.70
2023-04-16T01:06:48.007Z,32.10
2023-04-16T01:07:47.932Z,32.80
2023-04-16T01:08:47.882Z,32.30
2023-04-16T01:09:47.716Z,32.00
2023-04-16T01:10:47.956Z,31.70
2023-04-16T01:11:48.189Z,32.50
2023-04-16T01:12:47.961Z,32.70
2023-04-16T01:13:47.889Z,32.10
2023-04-16T01:14:47.871Z,31.60
2023-04-16T01:15:47.985Z,32.20
2023-04-16T01:16:47.864Z,33.00
2023-04-16T01:17:47.869Z,33.20
2023-04-16T01:18:47.928Z,32.90
2023-04-16T01:19:47.854Z,32.20
2023-04-16T01:20:47.772Z,32.20
2023-04-16T01:21:47.880Z,32.00
2023-04-16T01:22:47.823Z,32.50
2023-04-16T01:23:47.819Z,32.10
2023-04-16T01:24:47.683Z,32.00
2023-04-16T01:25:47.786Z,33.10
2023-04-16T01:26:47.546Z,31.60
2023-04-16T01:27:47.764Z,32.00
2023-04-16T01:28:47.657Z,31.90
2023-04-16T01:29:47.642Z,33.00
2023-04-16T01:30:47.630Z,33.00
2023-04-16T01:31:47.673Z,31.90
2023-04-16T01:32:47.881Z,31.90
2023-04-16T01:33:47.680Z,32.50
2023-04-16T01:34:47.634Z,32.60
2023-04-16T01:35:47.630Z,32.00
2023-04-16T01:36:47.610Z,32.60
2023-04-16T01:37:47.693Z,32.60
2023-04-16T01:38:47.550Z,32.90
2023-04-16T01:39:47.516Z,32.20
2023-04-16T01:40:47.480Z,32.10
2023-04-16T01:41:47.573Z,33.00
2023-04-16T01:42:47.634Z,31.80
2023-04-16T01:43:47.623Z,33.00
2023-04-16T01:44:47.543Z,31.80
2023-04-16T01:45:47.386Z,31.10
2023-04-16T01:46:47.500Z,32.00
2023-04-16T01:47:47.553Z,33.00
2023-04-16T01:48:47.489Z,32.50
2023-04-16T01:49:47.568Z,32.30
2023-04-16T01:50:47.374Z,32.30
2023-04-16T01:51:47.415Z,32.70
2023-04-16T01:52:47.425Z,32.40
2023-04-16T01:53:47.501Z,33.00
2023-04-16T01:54:47.371Z,32.80
2023-04-16T01:55:47.485Z,33.10
2023-04-16T01:56:47.318Z,32.50
2023-04-16T01:57:47.335Z,33.20
2023-04-16T01:58:47.335Z,32.30
2023-04-16T01:59:47.361Z,32.20
2023-04-16T02:00:47.405Z,32.90
2023-04-16T02:01:47.452Z,31.90
2023-04-16T02:02:47.425Z,32.30
2023-04-16T02:03:47.452Z,33.50
2023-04-16T02:04:47.419Z,31.70
2023-04-16T02:05:47.320Z,32.30
2023-04-16T02:06:47.324Z,32.90
2023-04-16T02:07:47.264Z,31.40
2023-04-16T02:08:47.290Z,31.00
2023-04-16T02:09:47.301Z,31.30
2023-04-16T02:10:47.261Z,32.00
2023-04-16T02:11:47.338Z,31.60
2023-04-16T02:12:47.201Z,30.90
2023-04-16T02:13:47.224Z,31.40
2023-04-16T02:14:47.228Z,31.40
2023-04-16T02:15:47.310Z,32.20
2023-04-16T02:16:47.198Z,31.70
2023-04-16T02:17:47.174Z,31.20
2023-04-16T02:18:47.158Z,32.10
2023-04-16T02:19:47.154Z,30.80
2023-04-16T02:20:47.148Z,31.50
2023-04-16T02:21:47.213Z,31.50
2023-04-16T02:22:47.154Z,32.50
2023-04-16T02:23:46.982Z,31.10
2023-04-16T02:24:47.138Z,32.10
2023-04-16T02:25:47.157Z,33.00
2023-04-16T02:26:47.238Z,31.80
2023-04-16T02:27:47.098Z,32.70
2023-04-16T02:28:47.092Z,32.50
2023-04-16T02:29:47.100Z,33.50
2023-04-16T02:30:47.109Z,32.00
2023-04-16T02:31:47.038Z,31.20
2023-04-16T02:32:47.194Z,32.40
2023-04-16T02:33:47.049Z,31.40
2023-04-16T02:34:46.979Z,32.40
2023-04-16T02:35:46.994Z,32.10
2023-04-16T02:36:47.070Z,32.70
2023-04-16T02:37:47.089Z,32.40
2023-04-16T02:38:47.028Z,31.40
2023-04-16T02:39:46.879Z,32.50
2023-04-16T02:40:46.881Z,32.50
2023-04-16T02:41:46.925Z,32.60
2023-04-16T02:42:46.937Z,30.80
2023-04-16T02:43:47.017Z,30.90
2023-04-16T02:44:47.007Z,31.00
2023-04-16T02:45:46.950Z,30.70
2023-04-16T02:46:46.898Z,32.10
2023-04-16T02:47:46.989Z,31.50
2023-04-16T02:48:46.865Z,30.80
2023-04-16T02:49:46.724Z,31.10
2023-04-16T02:50:46.747Z,31.80
2023-04-16T02:51:46.833Z,30.40
2023-04-16T02:52:46.830Z,30.40
2023-04-16T02:53:46.884Z,32.00
2023-04-16T02:54:46.791Z,30.80
2023-04-16T02:55:46.785Z,30.70
2023-04-16T02:56:46.780Z,31.00
2023-04-16T02:57:46.767Z,30.00
2023-04-16T02:58:46.757Z,31.10
2023-04-16T02:59:46.819Z,30.10
2023-04-16T03:00:46.730Z,29.70
2023-04-16T03:01:46.804Z,31.20
2023-04-16T03:02:46.831Z,30.10
2023-04-16T03:03:46.764Z,30.40
2023-04-16T03:04:46.832Z,29.50
2023-04-16T03:05:46.717Z,29.40
2023-04-16T03:06:46.700Z,30.50
2023-04-16T03:07:46.685Z,29.80
2023-04-16T03:08:46.689Z,29.30
2023-04-16T03:09:46.664Z,29.70
2023-04-16T03:10:46.734Z,31.20
2023-04-16T03:11:46.556Z,30.10
2023-04-16T03:12:46.614Z,29.60
2023-04-16T03:13:46.442Z,30.10
2023-04-16T03:14:46.692Z,30.00
2023-04-16T03:15:46.618Z,29.80
2023-04-16T03:16:46.699Z,29.40
2023-04-16T03:17:46.589Z,29.80
2023-04-16T03:18:46.629Z,29.50
2023-04-16T03:19:46.543Z,29.50
2023-04-16T03:20:46.530Z,28.90
2023-04-16T03:21:46.543Z,29.20
2023-04-16T03:22:46.616Z,28.80
2023-04-16T03:23:46.518Z,28.90
2023-04-16T03:24:46.510Z,29.20
2023-04-16T03:25:46.516Z,29.10
2023-04-16T03:26:46.569Z,29.20
2023-04-16T03:27:46.482Z,30.50
2023-04-16T03:28:46.538Z,30.10
2023-04-16T03:29:46.450Z,28.60
2023-04-16T03:30:46.488Z,28.80
2023-04-16T03:31:46.461Z,28.50
2023-04-16T03:32:46.482Z,28.60
2023-04-16T03:33:46.365Z,28.80
2023-04-16T03:34:46.405Z,28.50
2023-04-16T03:35:46.330Z,27.90
2023-04-16T03:36:46.353Z,27.90
2023-04-16T03:37:46.393Z,27.80
2023-04-16T03:38:46.375Z,28.00
2023-04-16T03:39:46.339Z,27.30
2023-04-16T03:40:46.362Z,27.20
2023-04-16T03:41:46.386Z,27.70
2023-04-16T03:42:46.312Z,26.50
2023-04-16T03:43:46.310Z,26.20
2023-04-16T03:44:46.305Z,26.80
2023-04-16T03:45:46.316Z,25.90
2023-04-16T03:46:46.311Z,26.40
2023-04-16T03:47:46.360Z,26.30
2023-04-16T03:48:46.253Z,25.50
2023-04-16T03:49:46.132Z,25.20
2023-04-16T03:50:46.335Z,26.50
2023-04-16T03:51:46.257Z,25.40
2023-04-16T03:52:46.179Z,26.00
2023-04-16T03:53:46.174Z,25.60
2023-04-16T03:54:46.237Z,25.60
2023-04-16T03:55:46.145Z,25.30
2023-04-16T03:56:46.132Z,25.90
2023-04-16T03:57:46.205Z,24.60
2023-04-16T03:58:46.085Z,26.40
2023-04-16T03:59:46.235Z,25.80
2023-04-16T04:00:46.133Z,25.90
2023-04-16T04:01:46.166Z,24.90
2023-04-16T04:02:46.308Z,25.40
2023-04-16T04:03:46.287Z,25.00
2023-04-16T04:04:46.094Z,25.00
2023-04-16T04:05:46.059Z,25.20
2023-04-16T04:06:45.988Z,25.00
2023-04-16T04:07:46.005Z,25.20
2023-04-16T04:08:46.016Z,24.80
2023-04-16T04:09:46.087Z,24.50
2023-04-16T04:10:46.062Z,25.20
2023-04-16T04:11:45.958Z,25.40
2023-04-16T04:12:45.961Z,24.10
2023-04-16T04:13:45.956Z,24.50
2023-04-16T04:14:45.787Z,25.10
2023-04-16T04:15:46.023Z,24.60
2023-04-16T04:16:46.069Z,23.80
2023-04-16T04:17:45.782Z,24.20
2023-04-16T04:18:45.930Z,24.50
2023-04-16T04:20:00.095Z,25.30
2023-04-16T04:20:45.908Z,24.80
2023-04-16T04:21:45.894Z,24.90
2023-04-16T04:22:45.960Z,24.60
2023-04-16T04:23:45.861Z,24.00
2023-04-16T04:24:45.846Z,23.90
2023-04-16T04:25:45.693Z,24.30
2023-04-16T04:26:45.874Z,23.60
2023-04-16T04:27:45.760Z,24.40
2023-04-16T04:28:45.816Z,24.30
2023-04-16T04:29:45.783Z,23.70
2023-04-16T04:30:45.767Z,23.90
2023-04-16T04:31:45.808Z,24.20
2023-04-16T04:32:45.756Z,24.10
2023-04-16T04:33:45.696Z,25.60
2023-04-16T04:34:45.736Z,23.90
2023-04-16T04:35:45.700Z,24.20
2023-04-16T04:36:45.843Z,24.80
2023-04-16T04:37:45.653Z,23.70
2023-04-16T04:38:45.645Z,24.20
2023-04-16T04:39:45.639Z,24.50
2023-04-16T04:40:45.635Z,24.60
2023-04-16T04:41:45.626Z,24.50
2023-04-16T04:42:45.486Z,24.60
2023-04-16T04:43:45.632Z,23.30
2023-04-16T04:44:45.722Z,24.60
2023-04-16T04:45:45.600Z,23.50
2023-04-16T04:46:45.606Z,23.60
2023-04-16T04:47:45.709Z,23.40
2023-04-16T04:48:45.669Z,24.40
2023-04-16T04:49:45.574Z,24.50
2023-04-16T04:50:45.586Z,23.50
2023-04-16T04:51:45.517Z,23.70
2023-04-16T04:52:45.619Z,24.30
2023-04-16T04:53:45.489Z,23.00
2023-04-16T04:54:45.375Z,24.50
2023-04-16T04:55:45.534Z,24.50
2023-04-16T04:56:45.359Z,24.20
2023-04-16T04:57:45.378Z,24.90
2023-04-16T04:58:45.460Z,23.60
2023-04-16T04:59:45.460Z,23.40
2023-04-16T05:00:45.323Z,23.40
2023-04-16T05:01:45.452Z,23.80
2023-04-16T05:02:45.382Z,24.60
2023-04-16T05:03:45.357Z,23.40
2023-04-16T05:04:45.306Z,23.50
2023-04-16T05:05:45.300Z,24.40
2023-04-16T05:06:45.406Z,24.10
2023-04-16T05:07:45.322Z,23.20
2023-04-16T05:08:45.218Z,24.20
2023-04-16T05:09:45.479Z,24.70
2023-04-16T05:10:45.250Z,23.80
2023-04-16T05:11:45.209Z,23.80
2023-04-16T05:12:45.162Z,23.70
2023-04-16T05:13:45.330Z,24.30
2023-04-16T05:14:45.387Z,23.70
2023-04-16T05:15:45.302Z,23.30
2023-04-16T05:16:45.249Z,23.20
2023-04-16T05:17:45.368Z,24.10
2023-04-16T05:18:45.117Z,24.20
2023-04-16T05:19:45.226Z,24.60
2023-04-16T05:20:45.352Z,24.80
2023-04-16T05:21:45.197Z,24.00
2023-04-16T05:22:45.246Z,24.30
2023-04-16T05:23:45.252Z,24.20
2023-04-16T05:24:45.064Z,24.40
2023-04-16T05:25:45.262Z,24.40
2023-04-16T05:26:45.195Z,24.70
2023-04-16T05:27:45.190Z,24.40
2023-04-16T05:28:45.035Z,24.60
2023-04-16T05:29:45.057Z,25.00
2023-04-16T05:30:45.060Z,25.90
2023-04-16T05:31:45.159Z,25.70
2023-04-16T05:32:45.148Z,24.80
2023-04-16T05:33:45.229Z,25.10
2023-04-16T05:34:45.205Z,25.50
2023-04-16T05:35:45.055Z,25.40
2023-04-16T05:36:45.032Z,24.30
2023-04-16T05:37:45.142Z,25.20
2023-04-16T05:38:45.034Z,24.80
2023-04-16T05:39:45.034Z,24.50
2023-04-16T05:40:45.128Z,25.40
2023-04-16T05:41:44.982Z,24.10
2023-04-16T05:42:44.931Z,24.30
2023-04-16T05:43:44.968Z,24.40
2023-04-16T05:44:44.969Z,25.00
2023-04-16T05:45:45.072Z,25.10
2023-04-16T05:46:44.923Z,24.40
2023-04-16T05:47:45.027Z,24.80
2023-04-16T05:48:44.964Z,24.10
2023-04-16T05:49:44.963Z,25.00
2023-04-16T05:50:44.892Z,24.70
2023-04-16T05:51:44.966Z,25.90
2023-04-16T05:52:44.886Z,24.60
2023-04-16T05:53:44.883Z,23.40
2023-04-16T05:54:44.767Z,24.30
2023-04-16T05:55:44.871Z,24.20
2023-04-16T05:56:44.876Z,24.10
2023-04-16T05:57:44.793Z,24.70
2023-04-16T05:58:44.685Z,24.50
2023-04-16T05:59:45.005Z,24.70
2023-04-16T06:00:44.707Z,24.30
2023-04-16T06:01:44.619Z,24.30
2023-04-16T06:02:45.033Z,23.60
2023-04-16T06:03:44.828Z,23.90
2023-04-16T06:04:44.643Z,24.10
2023-04-16T06:05:44.843Z,23.50
2023-04-16T06:06:44.685Z,23.50
2023-04-16T06:07:44.658Z,24.30
2023-04-16T06:08:44.590Z,24.20
2023-04-16T06:09:44.587Z,24.40
2023-04-16T06:10:44.537Z,23.70
2023-04-16T06:11:44.548Z,23.90
2023-04-16T06:12:44.538Z,24.60
2023-04-16T06:13:44.596Z,24.00
2023-04-16T06:14:44.635Z,24.10
2023-04-16T06:15:44.585Z,24.20
2023-04-16T06:16:44.561Z,24.10
2023-04-16T06:17:44.639Z,23.80
2023-04-16T06:18:44.579Z,24.50
2023-04-16T06:19:44.590Z,24.40
2023-04-16T06:20:44.692Z,24.70
2023-04-16T06:21:44.603Z,24.90
2023-04-16T06:22:44.614Z,24.10
2023-04-16T06:23:44.577Z,24.10
2023-04-16T06:24:44.640Z,23.40
2023-04-16T06:25:44.569Z,24.10
2023-04-16T06:26:44.635Z,23.90
2023-04-16T06:27:44.631Z,23.90
2023-04-16T06:28:44.561Z,24.20
2023-04-16T06:29:44.419Z,24.80
2023-04-16T06:30:44.901Z,24.70
2023-04-16T06:31:44.619Z,23.90
2023-04-16T06:32:44.666Z,24.70
2023-04-16T06:33:44.450Z,23.80
2023-04-16T06:34:44.458Z,25.70
2023-04-16T06:35:44.567Z,25.80
2023-04-16T06:36:44.457Z,24.80
2023-04-16T06:37:44.453Z,24.20
2023-04-16T06:38:44.464Z,24.40
2023-04-16T06:39:44.556Z,25.20
2023-04-16T06:40:44.436Z,23.60
2023-04-16T06:41:44.375Z,24.40
2023-04-16T06:42:45.667Z,24.80
2023-04-16T06:43:44.272Z,24.40
2023-04-16T06:44:44.364Z,24.30
2023-04-16T06:45:44.204Z,24.20
2023-04-16T06:46:44.278Z,24.80
2023-04-16T06:47:44.322Z,23.80
2023-04-16T06:48:44.190Z,25.80
2023-04-16T06:49:44.307Z,24.00
2023-04-16T06:50:44.252Z,25.10
2023-04-16T06:51:44.254Z,26.10
2023-04-16T06:52:44.257Z,25.30
2023-04-16T06:53:44.332Z,24.90
2023-04-16T06:54:44.238Z,24.90
2023-04-16T06:55:44.211Z,23.80
2023-04-16T06:56:44.199Z,24.70
2023-04-16T06:57:44.282Z,24.70
2023-04-16T06:58:44.200Z,24.10
2023-04-16T06:59:44.214Z,24.60
2023-04-16T07:00:44.120Z,22.70
2023-04-16T07:01:44.272Z,23.00
2023-04-16T07:02:44.379Z,22.80
2023-04-16T07:03:44.183Z,22.10
2023-04-16T07:04:43.976Z,22.40
2023-04-16T07:05:44.139Z,22.70
2023-04-16T07:06:43.987Z,22.10
2023-04-16T07:07:44.194Z,22.80
2023-04-16T07:08:43.981Z,23.00
2023-04-16T07:09:43.968Z,23.60
2023-04-16T07:10:43.915Z,22.60
2023-04-16T07:11:44.085Z,22.80
2023-04-16T07:12:44.099Z,22.60
2023-04-16T07:13:43.925Z,23.40
2023-04-16T07:14:43.937Z,23.90
2023-04-16T07:15:43.935Z,21.60
2023-04-16T07:16:43.988Z,21.80
2023-04-16T07:17:44.089Z,22.00
2023-04-16T07:18:44.124Z,21.50
2023-04-16T07:19:43.973Z,21.80
2023-04-16T07:20:43.875Z,21.30
2023-04-16T07:21:43.981Z,21.30
2023-04-16T07:22:44.032Z,21.10
2023-04-16T07:23:44.067Z,21.20
2023-04-16T07:24:43.943Z,21.10
2023-04-16T07:25:44.572Z,20.50
2023-04-16T07:26:43.939Z,20.00
2023-04-16T07:27:43.744Z,19.40
2023-04-16T07:28:43.908Z,19.20
2023-04-16T07:29:43.918Z,19.60
2023-04-16T07:30:43.865Z,18.90
2023-04-16T07:31:43.968Z,19.00
2023-04-16T07:32:43.968Z,19.90
2023-04-16T07:33:43.855Z,19.50
2023-04-16T07:34:43.818Z,19.60
2023-04-16T07:35:43.824Z,19.70
2023-04-16T07:36:43.695Z,19.20
2023-04-16T07:37:43.853Z,19.60
2023-04-16T07:38:43.747Z,19.30
2023-04-16T07:39:43.735Z,19.70
2023-04-16T07:40:43.875Z,18.70
2023-04-16T07:41:43.687Z,19.40
2023-04-16T07:42:43.740Z,18.40
2023-04-16T07:43:43.732Z,19.20
2023-04-16T07:44:43.715Z,18.70
2023-04-16T07:45:43.720Z,19.00
2023-04-16T07:46:47.313Z,19.00
2023-04-16T07:47:43.724Z,20.00
2023-04-16T07:48:43.725Z,18.20
2023-04-16T07:49:43.706Z,19.20
2023-04-16T07:50:43.774Z,19.30
2023-04-16T07:51:43.710Z,19.60
2023-04-16T07:52:43.684Z,18.80
2023-04-16T07:53:43.510Z,18.90
2023-04-16T07:54:43.717Z,19.40
2023-04-16T07:55:43.687Z,19.00
2023-04-16T07:56:43.833Z,19.90
2023-04-16T07:57:43.695Z,18.70
2023-04-16T07:58:43.583Z,19.10
2023-04-16T07:59:43.640Z,18.70
2023-04-16T08:00:43.576Z,19.40
2023-04-16T08:01:43.550Z,20.10
2023-04-16T08:02:43.823Z,18.50
2023-04-16T08:03:43.877Z,19.30
2023-04-16T08:04:43.937Z,19.60
2023-04-16T08:05:43.362Z,20.00
2023-04-16T08:06:43.586Z,19.60
2023-04-16T08:07:43.637Z,19.70
2023-04-16T08:08:43.649Z,18.90
2023-04-16T08:09:43.496Z,19.30
2023-04-16T08:10:43.475Z,20.00
2023-04-16T08:11:43.471Z,19.20
2023-04-16T08:12:43.610Z,19.60
2023-04-16T08:13:43.533Z,19.70
2023-04-16T08:14:43.325Z,18.60
2023-04-16T08:15:43.573Z,19.30
2023-04-16T08:16:43.508Z,19.50
2023-04-16T08:17:43.569Z,18.90
2023-04-16T08:18:43.577Z,19.80
2023-04-16T08:19:43.462Z,19.30
2023-04-16T08:20:43.237Z,20.10
2023-04-16T08:21:43.218Z,19.50
2023-04-16T08:22:43.364Z,18.40
2023-04-16T08:23:43.241Z,19.20
2023-04-16T08:24:43.307Z,19.60
2023-04-16T08:25:43.474Z,19.20
2023-04-16T08:26:43.378Z,18.80
2023-04-16T08:27:43.346Z,19.20
2023-04-16T08:28:43.392Z,19.20
2023-04-16T08:29:43.274Z,19.40
2023-04-16T08:30:43.249Z,19.50
2023-04-16T08:31:43.281Z,19.50
2023-04-16T08:32:43.301Z,19.80
2023-04-16T08:33:43.320Z,19.40
2023-04-16T08:34:43.299Z,19.80
2023-04-16T08:35:43.225Z,19.60
2023-04-16T08:36:43.071Z,20.10
2023-04-16T08:37:43.210Z,19.40
2023-04-16T08:38:43.190Z,19.30
2023-04-16T08:39:43.261Z,19.40
2023-04-16T08:40:43.157Z,19.60
2023-04-16T08:41:43.139Z,18.80
2023-04-16T08:42:43.187Z,19.90
2023-04-16T08:43:43.175Z,19.70
2023-04-16T08:44:43.234Z,18.80
2023-04-16T08:45:43.131Z,19.90
2023-04-16T08:46:43.142Z,19.50
2023-04-16T08:47:43.125Z,20.20
2023-04-16T08:48:43.113Z,19.70
2023-04-16T08:49:43.175Z,19.80
2023-04-16T08:50:43.148Z,19.80
2023-04-16T08:51:43.135Z,20.70
2023-04-16T08:52:43.032Z,19.70
2023-04-16T08:53:42.996Z,20.30
2023-04-16T08:54:43.049Z,19.90
2023-04-16T08:55:43.011Z,19.70
2023-04-16T08:56:43.325Z,19.30
2023-04-16T08:57:42.886Z,19.60
2023-04-16T08:58:42.974Z,19.40
2023-04-16T08:59:42.962Z,19.90
2023-04-16T09:00:42.993Z,20.20
2023-04-16T09:01:43.000Z,19.40
2023-04-16T09:02:43.171Z,19.90
2023-04-16T09:03:43.063Z,20.20
2023-04-16T09:04:43.261Z,19.70
2023-04-16T09:05:42.805Z,20.10
2023-04-16T09:06:42.842Z,20.00
2023-04-16T09:07:42.881Z,20.00
2023-04-16T09:08:42.894Z,19.80
2023-04-16T09:09:42.889Z,20.10
2023-04-16T09:10:42.884Z,20.20
2023-04-16T09:11:42.744Z,20.80
2023-04-16T09:12:42.665Z,20.50
2023-04-16T09:13:42.735Z,20.00
2023-04-16T09:14:42.792Z,20.70
2023-04-16T09:15:42.803Z,20.10
2023-04-16T09:16:42.825Z,20.40
2023-04-16T09:17:42.862Z,20.90
2023-04-16T09:18:42.754Z,19.70
2023-04-16T09:19:42.742Z,19.90
2023-04-16T09:20:42.599Z,21.60
2023-04-16T09:21:42.719Z,20.60
2023-04-16T09:22:42.635Z,20.10
2023-04-16T09:23:42.789Z,19.80
2023-04-16T09:24:42.777Z,21.10
2023-04-16T09:25:42.624Z,20.00
2023-04-16T09:26:42.708Z,20.90
2023-04-16T09:27:42.694Z,19.90
2023-04-16T09:28:42.765Z,20.10
2023-04-16T09:29:42.579Z,21.00
2023-04-16T09:30:42.611Z,20.80
2023-04-16T09:31:42.619Z,21.40
2023-04-16T09:32:42.672Z,20.40
2023-04-16T09:33:42.693Z,21.30
2023-04-16T09:34:42.514Z,20.50
2023-04-16T09:35:42.518Z,20.70
2023-04-16T09:36:42.413Z,20.00
2023-04-16T09:37:42.418Z,21.20
2023-04-16T09:38:42.457Z,20.90
2023-04-16T09:39:42.359Z,20.80
2023-04-16T09:40:42.465Z,20.40
2023-04-16T09:41:42.348Z,20.20
2023-04-16T09:42:42.410Z,21.00
2023-04-16T09:43:42.377Z,21.00
2023-04-16T09:44:42.357Z,20.90
2023-04-16T09:45:42.418Z,20.50
2023-04-16T09:46:42.393Z,21.00
2023-04-16T09:47:42.362Z,20.70
2023-04-16T09:48:42.448Z,20.50
2023-04-16T09:49:42.275Z,20.60
2023-04-16T09:50:42.333Z,20.90
2023-04-16T09:51:42.315Z,20.70
2023-04-16T09:52:42.269Z,20.90
2023-04-16T09:53:42.324Z,20.70
2023-04-16T09:54:42.299Z,19.80
2023-04-16T09:55:42.322Z,21.10
2023-04-16T09:56:42.280Z,19.80
2023-04-16T09:57:42.355Z,21.30
2023-04-16T09:58:42.428Z,20.90
2023-04-16T09:59:42.335Z,19.80
2023-04-16T10:00:43.674Z,19.80
2023-04-16T10:01:42.442Z,20.60
2023-04-16T10:02:42.757Z,19.60
2023-04-16T10:03:42.484Z,20.20
2023-04-16T10:04:42.294Z,20.60
2023-04-16T10:05:42.274Z,20.30
2023-04-16T10:06:42.297Z,20.00
2023-04-16T10:07:42.129Z,20.00
2023-04-16T10:08:42.056Z,20.90
2023-04-16T10:09:42.105Z,19.30
2023-04-16T10:10:42.127Z,19.50
2023-04-16T10:11:42.183Z,19.40
2023-04-16T10:12:42.222Z,20.30
2023-04-16T10:13:42.135Z,19.50
2023-04-16T10:14:42.050Z,20.10
2023-04-16T10:15:42.183Z,20.20
2023-04-16T10:16:42.021Z,19.20
2023-04-16T10:17:41.992Z,19.00
2023-04-16T10:18:42.117Z,19.90
2023-04-16T10:19:42.109Z,19.30
2023-04-16T10:20:42.002Z,19.30
2023-04-16T10:21:42.076Z,19.20
2023-04-16T10:22:42.140Z,18.80
2023-04-16T10:23:42.046Z,19.10
2023-04-16T10:24:42.055Z,19.40
2023-04-16T10:25:42.031Z,19.20
2023-04-16T10:26:42.036Z,18.70
2023-04-16T10:27:42.015Z,18.80
2023-04-16T10:28:42.089Z,19.20
2023-04-16T10:29:42.015Z,19.00
2023-04-16T10:30:42.025Z,18.10
2023-04-16T10:31:42.008Z,19.10
2023-04-16T10:32:42.050Z,18.60
2023-04-16T10:33:41.950Z,17.80
2023-04-16T10:34:41.886Z,17.10
2023-04-16T10:35:41.796Z,16.90
2023-04-16T10:36:41.956Z,17.20
2023-04-16T10:37:41.957Z,17.30
2023-04-16T10:38:41.840Z,16.80
2023-04-16T10:39:41.832Z,16.50
2023-04-16T10:40:41.819Z,17.10
2023-04-16T10:41:41.702Z,17.30
2023-04-16T10:42:41.757Z,17.20
2023-04-16T10:43:41.788Z,16.60
2023-04-16T10:44:45.012Z,16.30
2023-04-16T10:45:41.668Z,16.60
2023-04-16T10:46:41.852Z,16.00
2023-04-16T10:47:41.859Z,16.10
2023-04-16T10:48:49.591Z,16.00
2023-04-16T10:49:41.831Z,16.10
2023-04-16T10:50:41.809Z,15.60
2023-04-16T10:51:41.816Z,16.10
2023-04-16T10:52:41.783Z,16.60
2023-04-16T10:53:41.707Z,15.80
2023-04-16T10:54:41.796Z,15.90
2023-04-16T10:55:41.727Z,16.50
2023-04-16T10:56:41.888Z,16.20
2023-04-16T10:57:41.717Z,16.40
2023-04-16T10:58:41.722Z,15.90
2023-04-16T10:59:41.793Z,15.80
2023-04-16T11:00:41.805Z,15.60
2023-04-16T11:01:41.798Z,15.60
2023-04-16T11:02:41.824Z,15.90
2023-04-16T11:03:41.595Z,15.50
2023-04-16T11:04:41.603Z,15.50
2023-04-16T11:05:41.551Z,15.40
2023-04-16T11:06:41.581Z,15.80
2023-04-16T11:07:41.445Z,16.40
2023-04-16T11:08:53.857Z,16.60
2023-04-16T11:09:41.469Z,16.00
2023-04-16T11:10:41.504Z,16.00
2023-04-16T11:11:41.427Z,16.20
2023-04-16T11:12:41.439Z,16.40
2023-04-16T11:13:43.497Z,16.00
2023-04-16T11:14:41.434Z,16.70
2023-04-16T11:15:41.397Z,15.30
2023-04-16T11:16:41.425Z,16.60
2023-04-16T11:17:41.441Z,16.60
2023-04-16T11:18:41.623Z,16.50
2023-04-16T11:19:41.521Z,16.80
2023-04-16T11:20:41.494Z,17.00
2023-04-16T11:21:41.483Z,16.30
2023-04-16T11:22:41.444Z,16.60
2023-04-16T11:23:41.482Z,17.20
2023-04-16T11:24:41.435Z,16.60
2023-04-16T11:25:41.401Z,16.20
2023-04-16T11:26:41.374Z,17.10
2023-04-16T11:27:41.348Z,16.80
2023-04-16T11:28:41.256Z,16.70
2023-04-16T11:29:41.387Z,17.10
2023-04-16T11:30:41.375Z,16.70
2023-04-16T11:31:41.986Z,16.30
2023-04-16T11:32:41.245Z,17.10
2023-04-16T11:33:41.220Z,15.60
2023-04-16T11:34:41.195Z,16.20
2023-04-16T11:35:41.238Z,16.90
2023-04-16T11:36:41.300Z,16.20
2023-04-16T11:37:41.169Z,16.50
2023-04-16T11:38:41.194Z,17.50
2023-04-16T11:39:41.241Z,17.10
2023-04-16T11:40:41.334Z,17.00
2023-04-16T11:41:41.256Z,17.00
2023-04-16T11:42:41.243Z,16.80
2023-04-16T11:43:41.272Z,17.00
2023-04-16T11:44:41.191Z,16.60
2023-04-16T11:45:41.096Z,17.40
2023-04-16T11:46:41.285Z,16.70
2023-04-16T11:47:41.275Z,17.40
2023-04-16T11:48:41.174Z,17.40
2023-04-16T11:49:41.155Z,17.50
2023-04-16T11:50:41.230Z,17.90
2023-04-16T11:51:41.185Z,17.30
2023-04-16T11:52:41.095Z,17.90
2023-04-16T11:53:41.110Z,17.40
2023-04-16T11:54:41.137Z,17.10
2023-04-16T11:55:41.081Z,17.90
2023-04-16T11:56:40.922Z,16.90
2023-04-16T11:57:41.117Z,17.70
2023-04-16T11:58:43.249Z,17.90
2023-04-16T12:00:01.524Z,17.70
2023-04-16T12:00:41.157Z,16.40
2023-04-16T12:01:40.954Z,17.10
2023-04-16T12:02:41.229Z,17.50
2023-04-16T12:03:41.191Z,16.80
2023-04-16T12:04:41.065Z,17.50
2023-04-16T12:05:40.977Z,17.30
2023-04-16T12:06:41.026Z,16.70
2023-04-16T12:07:41.013Z,17.80
2023-04-16T12:08:40.974Z,17.90
2023-04-16T12:09:41.207Z,17.40
2023-04-16T12:10:40.834Z,17.50
2023-04-16T12:11:40.713Z,17.20
2023-04-16T12:12:40.784Z,17.70
2023-04-16T12:13:40.761Z,17.30
2023-04-16T12:14:40.766Z,16.80
2023-04-16T12:15:40.718Z,16.90
2023-04-16T12:16:40.876Z,17.50
2023-04-16T12:17:40.719Z,17.10
2023-04-16T12:18:40.711Z,17.10
2023-04-16T12:19:40.710Z,16.80
2023-04-16T12:20:40.781Z,17.20
2023-04-16T12:21:40.717Z,16.50
2023-04-16T12:22:40.785Z,17.30
2023-04-16T12:23:40.740Z,16.40
2023-04-16T12:24:40.615Z,17.10
2023-04-16T12:25:40.681Z,16.20
2023-04-16T12:26:40.681Z,16.50
2023-04-16T12:27:40.716Z,17.00
2023-04-16T12:28:40.725Z,16.20
2023-04-16T12:29:40.638Z,17.10
2023-04-16T12:30:40.604Z,16.90
2023-04-16T12:31:40.580Z,16.60
2023-04-16T12:32:40.574Z,16.40
2023-04-16T12:33:40.752Z,16.50
2023-04-16T12:34:49.059Z,16.00
2023-04-16T12:35:40.529Z,16.60
2023-04-16T12:36:40.660Z,15.90
2023-04-16T12:37:40.486Z,15.90
2023-04-16T12:38:40.492Z,16.20
2023-04-16T12:39:40.504Z,16.40
2023-04-16T12:40:40.489Z,16.20
2023-04-16T12:41:40.453Z,16.70
2023-04-16T12:42:40.449Z,16.60
2023-04-16T12:43:40.450Z,16.20
2023-04-16T12:44:40.434Z,15.80
2023-04-16T12:45:40.471Z,15.60
2023-04-16T12:46:40.476Z,17.40
2023-04-16T12:47:40.524Z,16.00
2023-04-16T12:48:40.339Z,16.40
2023-04-16T12:49:40.672Z,17.10
2023-04-16T12:50:40.584Z,15.90
2023-04-16T12:51:40.442Z,16.10
2023-04-16T12:52:40.546Z,16.50